Time;durP1;ratioP1;P1;durP2;ratioP2;P2;SDS_P1;SDS_P2;PMS_P1;PMS_P2;Temp;Humidity;BMP_temperature;BMP_pressure;BME280_temperature;BME280_humidity;BME280_pressure;Samples;Min_cycle;Max_cycle;Signal;HPM_P1;HPM_P2
2021/01/18 00:00:18;;;;;;;61.15;50.63;;;;;;;4.66;62.48;100969.66;4952881;28;98723;-73
2021/01/18 00:02:45;;;;;;;62.38;49.60;;;;;;;4.65;62.44;100967.97;4952957;28;98465;-74
2021/01/18 00:05:12;;;;;;;56.60;46.92;;;;;;;4.77;62.02;100976.41;4952748;28;96589;-74
2021/01/18 00:07:51;;;;;;;61.85;48.85;;;;;;;4.70;62.22;100970.47;4954125;28;96629;-73
2021/01/18 00:10:24;;;;;;;58.13;46.97;;;;;;;4.79;62.03;100969.47;4953059;28;97733;-73
2021/01/18 00:12:54;;;;;;;55.53;46.85;;;;;;;4.81;61.58;100968.59;4952639;28;98615;-74
2021/01/18 00:15:22;;;;;;;57.38;47.58;;;;;;;4.71;61.58;100970.44;4952776;28;96879;-74
2021/01/18 00:17:49;;;;;;;57.17;49.03;;;;;;;4.62;61.90;100975.75;4953341;28;96639;-75
2021/01/18 00:20:17;;;;;;;57.97;44.55;;;;;;;4.54;62.36;100972.44;4953387;28;98635;-75
2021/01/18 00:22:44;;;;;;;53.53;44.50;;;;;;;4.28;63.22;100972.75;4952282;28;98569;-75
2021/01/18 00:25:14;;;;;;;57.40;45.45;;;;;;;4.39;62.48;100965.72;4953252;28;96510;-75
2021/01/18 00:27:40;;;;;;;54.47;46.13;;;;;;;4.37;62.29;100964.91;4952676;28;96638;-75
2021/01/18 00:30:15;;;;;;;59.50;47.45;;;;;;;4.16;63.32;100971.19;4946656;28;98487;-75
2021/01/18 00:32:41;;;;;;;50.95;45.20;;;;;;;4.19;62.94;100976.28;4946878;28;98553;-75
2021/01/18 00:35:08;;;;;;;54.88;47.40;;;;;;;4.33;62.53;100967.53;4952225;28;96828;-75
2021/01/18 00:37:44;;;;;;;51.55;45.55;;;;;;;4.23;62.13;100971.97;4953459;28;97128;-75
2021/01/18 00:40:15;;;;;;;52.25;45.10;;;;;;;4.10;62.23;100973.84;4951736;28;98578;-75
2021/01/18 00:42:43;;;;;;;47.97;42.60;;;;;;;4.08;62.53;100972.16;4952275;28;98588;-74
2021/01/18 00:45:10;;;;;;;58.30;49.50;;;;;;;4.10;62.58;100976.44;4952799;28;97239;-75
2021/01/18 00:47:47;;;;;;;50.22;42.88;;;;;;;4.16;61.78;100981.50;4935699;28;96847;-74
2021/01/18 00:50:15;;;;;;;52.50;43.47;;;;;;;4.09;62.02;100990.19;4945994;28;98460;-74
2021/01/18 00:52:44;;;;;;;50.30;43.42;;;;;;;4.17;61.60;100988.38;4953184;28;98498;-74
2021/01/18 00:55:17;;;;;;;56.78;44.65;;;;;;;4.30;61.17;100988.22;4929682;28;97144;-76
2021/01/18 00:58:01;;;;;;;50.15;41.67;;;;;;;4.15;61.40;100987.53;4952388;28;96817;-75
2021/01/18 01:00:29;;;;;;;47.55;42.20;;;;;;;4.05;62.08;100996.28;4934331;28;98733;-76
2021/01/18 01:02:56;;;;;;;57.40;47.03;;;;;;;4.24;61.41;100999.47;4952742;28;97898;-75
2021/01/18 01:05:26;;;;;;;52.13;45.72;;;;;;;4.15;61.22;101002.16;4935088;28;97043;-76
2021/01/18 01:07:54;;;;;;;49.40;42.58;;;;;;;4.18;61.26;101005.56;4953365;28;96531;-76
2021/01/18 01:10:21;;;;;;;49.88;42.67;;;;;;;4.02;61.77;101006.59;4935875;28;98663;-78
2021/01/18 01:13:07;;;;;;;51.00;43.08;;;;;;;3.99;61.50;101013.50;4950571;28;98415;-76
2021/01/18 01:15:34;;;;;;;55.25;45.28;;;;;;;3.94;62.11;101013.56;4951842;28;96768;-75
2021/01/18 01:18:01;;;;;;;52.72;43.53;;;;;;;3.79;62.51;101013.75;4944337;28;96848;-76
2021/01/18 01:20:27;;;;;;;51.90;44.40;;;;;;;3.82;62.90;101013.69;4932842;28;97767;-76
2021/01/18 01:22:53;;;;;;;51.47;42.95;;;;;;;3.87;63.09;101027.41;4930014;28;98580;-75
2021/01/18 01:25:22;;;;;;;55.40;45.67;;;;;;;3.75;63.41;101027.53;4951434;28;96670;-76
2021/01/18 01:27:48;;;;;;;57.05;44.35;;;;;;;3.95;62.54;101028.19;4950135;28;96669;-76
2021/01/18 01:30:22;;;;;;;54.78;46.53;;;;;;;4.08;61.54;101031.50;4950759;28;98594;-76
2021/01/18 01:32:50;;;;;;;57.53;49.40;;;;;;;3.79;62.05;101027.50;4950757;28;98831;-75
2021/01/18 01:35:27;;;;;;;57.35;46.33;;;;;;;3.23;64.62;101031.38;4952120;28;96533;-76
2021/01/18 01:37:53;;;;;;;56.58;46.17;;;;;;;3.26;64.23;101027.97;4952701;28;96568;-76
2021/01/18 01:40:20;;;;;;;58.10;47.50;;;;;;;3.31;63.80;101036.50;4952187;28;99112;-76
2021/01/18 01:42:47;;;;;;;54.40;45.80;;;;;;;3.19;64.34;101045.16;4952259;28;98682;-76
2021/01/18 01:45:15;;;;;;;55.08;45.85;;;;;;;3.26;63.96;101046.00;4935596;28;97535;-76
2021/01/18 01:47:44;;;;;;;54.88;45.63;;;;;;;3.31;63.42;101039.09;4936868;28;97340;-77
2021/01/18 01:50:12;;;;;;;50.78;43.33;;;;;;;3.28;63.43;101044.25;4936669;28;98620;-76
2021/01/18 01:52:41;;;;;;;54.65;47.13;;;;;;;3.10;64.20;101043.53;4920952;28;98607;-75
2021/01/18 01:55:10;;;;;;;56.55;46.85;;;;;;;3.05;64.52;101034.13;4932335;28;96632;-74
2021/01/18 01:57:36;;;;;;;60.35;48.95;;;;;;;3.37;63.13;101033.88;4917508;28;97436;-74
2021/01/18 02:00:03;;;;;;;56.10;46.88;;;;;;;3.46;63.09;101041.50;4913147;28;98714;-74
2021/01/18 02:02:30;;;;;;;58.90;46.25;;;;;;;3.49;62.85;101040.66;4943961;28;97162;-74
2021/01/18 02:04:56;;;;;;;61.63;48.05;;;;;;;3.47;62.82;101044.97;4940785;28;96955;-74
2021/01/18 02:07:24;;;;;;;59.25;46.53;;;;;;;3.44;62.95;101040.69;4950190;28;96765;-75
2021/01/18 02:09:50;;;;;;;52.65;44.70;;;;;;;3.53;62.27;101043.19;4949473;28;98544;-74
2021/01/18 02:12:16;;;;;;;55.58;46.97;;;;;;;3.49;62.21;101038.94;4951167;28;98516;-74
2021/01/18 02:15:05;;;;;;;56.08;46.25;;;;;;;3.67;61.64;101048.22;4950912;28;96592;-74
2021/01/18 02:18:12;;;;;;;52.83;43.47;;;;;;;3.70;61.36;101048.19;4951734;28;96667;-76
2021/01/18 02:20:46;;;;;;;54.83;44.67;;;;;;;3.63;61.51;101049.13;4942700;28;98451;-74
2021/01/18 02:23:37;;;;;;;49.17;43.75;;;;;;;3.42;62.53;101045.84;4913030;28;98657;-74
2021/01/18 02:26:20;;;;;;;54.38;44.13;;;;;;;3.02;63.90;101044.41;4940572;28;96719;-74
2021/01/18 02:28:53;;;;;;;49.20;43.70;;;;;;;3.03;64.03;101049.56;4918526;28;96671;-74
2021/01/18 02:31:25;;;;;;;55.58;45.20;;;;;;;3.19;63.08;101054.59;4932293;28;98536;-78
2021/01/18 02:33:58;;;;;;;59.00;45.70;;;;;;;3.36;62.17;101052.78;4950662;28;98454;-78
2021/01/18 02:36:40;;;;;;;55.35;45.88;;;;;;;3.46;61.76;101054.41;4937508;28;96606;-76
2021/01/18 02:39:22;;;;;;;54.72;43.17;;;;;;;3.32;62.32;101045.94;4931514;28;98402;-75
2021/01/18 02:41:53;;;;;;;52.38;43.42;;;;;;;3.24;62.44;101047.69;4912451;28;98644;-76
2021/01/18 02:44:20;;;;;;;52.50;44.20;;;;;;;3.16;62.47;101045.19;4916210;28;98641;-74
2021/01/18 02:46:48;;;;;;;51.60;42.60;;;;;;;2.94;63.54;101043.63;4927528;28;96916;-73
2021/01/18 02:49:16;;;;;;;55.20;48.63;;;;;;;2.86;64.10;101033.34;4930362;28;97458;-73
2021/01/18 02:51:46;;;;;;;58.90;47.00;;;;;;;2.98;64.03;101035.84;4897403;28;98681;-75
2021/01/18 02:54:13;;;;;;;54.08;44.03;;;;;;;3.20;62.75;101035.72;4930124;28;98799;-78
2021/01/18 02:56:40;;;;;;;49.53;43.67;;;;;;;3.29;62.21;101030.50;4930170;28;96770;-75
2021/01/18 02:59:06;;;;;;;50.17;44.40;;;;;;;3.26;62.15;101038.25;4929237;28;96917;-76
2021/01/18 03:01:59;;;;;;;58.63;48.28;;;;;;;3.17;62.19;101039.16;4897634;28;98763;-75
2021/01/18 03:04:48;;;;;;;51.72;44.85;;;;;;;3.12;62.82;101038.34;4927179;28;98749;-76
2021/01/18 03:07:33;;;;;;;51.55;44.15;;;;;;;3.04;62.82;101033.25;4928199;28;96839;-75
2021/01/18 03:10:03;;;;;;;53.08;44.47;;;;;;;3.07;62.72;101042.66;4931198;28;96564;-73
2021/01/18 03:12:37;;;;;;;49.67;43.72;;;;;;;3.14;62.67;101041.75;4931021;28;98631;-75
2021/01/18 03:15:04;;;;;;;48.35;41.92;;;;;;;3.24;62.45;101039.97;4931778;28;98641;-75
2021/01/18 03:17:30;;;;;;;51.17;44.30;;;;;;;3.29;62.21;101045.94;4914959;28;98100;-75
2021/01/18 03:19:58;;;;;;;52.78;45.72;;;;;;;3.14;63.12;101047.78;4933268;28;96865;-75
2021/01/18 03:22:28;;;;;;;51.10;44.33;;;;;;;3.15;63.23;101038.34;4931315;28;98690;-75
2021/01/18 03:25:01;;;;;;;52.35;44.30;;;;;;;3.39;62.70;101042.44;4950098;28;98620;-75
2021/01/18 03:27:27;;;;;;;52.63;44.20;;;;;;;3.44;61.99;101040.69;4947775;28;96775;-76
2021/01/18 03:29:54;;;;;;;57.20;47.53;;;;;;;3.22;62.80;101044.28;4949785;28;97132;-75
2021/01/18 03:32:20;;;;;;;54.42;47.10;;;;;;;3.27;63.12;101042.53;4949400;28;98664;-75
2021/01/18 03:34:47;;;;;;;54.13;45.03;;;;;;;3.14;63.13;101047.78;4949914;28;98660;-75
2021/01/18 03:37:14;;;;;;;51.85;45.65;;;;;;;3.13;62.94;101045.19;4947839;28;96973;-75
2021/01/18 03:39:40;;;;;;;53.78;45.38;;;;;;;3.19;62.55;101050.31;4949101;28;96703;-75
2021/01/18 03:42:07;;;;;;;59.33;49.00;;;;;;;3.11;62.99;101042.66;4948241;28;98509;-75
2021/01/18 03:44:35;;;;;;;68.05;47.00;;;;;;;3.17;62.48;101046.91;4929806;28;98680;-75
2021/01/18 03:47:02;;;;;;;50.47;44.75;;;;;;;3.03;63.20;101044.41;4930704;28;97392;-75
2021/01/18 03:49:29;;;;;;;57.47;47.55;;;;;;;3.02;63.27;101047.00;4928561;28;96854;-76
2021/01/18 03:51:55;;;;;;;53.88;45.28;;;;;;;3.31;62.24;101044.25;4929388;28;98513;-75
2021/01/18 03:54:21;;;;;;;51.90;44.78;;;;;;;3.22;62.38;101052.03;4944880;28;98549;-74
2021/01/18 03:56:48;;;;;;;53.95;46.30;;;;;;;2.92;63.70;101050.50;4947262;28;96952;-74
2021/01/18 03:59:15;;;;;;;49.42;43.05;;;;;;;2.79;64.19;101060.00;4948661;28;96962;-75
2021/01/18 04:01:42;;;;;;;55.22;47.70;;;;;;;2.84;63.73;101058.28;4944248;28;97486;-74
2021/01/18 04:04:08;;;;;;;53.15;47.58;;;;;;;2.93;63.38;101059.91;4929429;28;98616;-75
2021/01/18 04:06:39;;;;;;;53.45;45.45;;;;;;;2.95;63.19;101061.63;4928257;28;97310;-74
2021/01/18 04:09:05;;;;;;;53.90;45.03;;;;;;;2.88;63.25;101062.56;4929667;28;96702;-74
2021/01/18 04:11:32;;;;;;;53.75;44.20;;;;;;;3.08;62.71;101068.41;4932902;28;98442;-74
2021/01/18 04:13:58;;;;;;;52.88;44.00;;;;;;;3.08;62.45;101067.56;4945786;28;98655;-74
2021/01/18 04:16:25;;;;;;;50.50;44.20;;;;;;;3.24;61.84;101066.59;4952736;28;96832;-74
2021/01/18 04:18:51;;;;;;;51.42;42.17;;;;;;;3.01;62.21;101077.06;4950756;28;99551;-74
2021/01/18 04:21:18;;;;;;;50.10;42.70;;;;;;;2.85;62.60;101073.72;4949810;28;98653;-74
2021/01/18 04:23:45;;;;;;;49.53;43.75;;;;;;;2.81;63.40;101084.03;4935172;28;98572;-74
2021/01/18 04:26:11;;;;;;;51.63;43.10;;;;;;;2.91;63.06;101082.25;4933231;28;98848;-75
2021/01/18 04:28:37;;;;;;;47.20;42.05;;;;;;;3.04;62.67;101082.19;4927773;28;97064;-74
2021/01/18 04:31:04;;;;;;;50.90;42.22;;;;;;;2.70;64.14;101096.09;4931848;28;98558;-73
2021/01/18 04:33:30;;;;;;;48.28;43.00;;;;;;;2.78;63.08;101091.78;4939649;28;98767;-73
2021/01/18 04:35:57;;;;;;;53.45;45.38;;;;;;;2.70;63.98;101088.38;4944726;28;97002;-75
2021/01/18 04:38:24;;;;;;;48.92;42.42;;;;;;;2.80;63.67;101093.47;4949598;28;97404;-77
2021/01/18 04:40:50;;;;;;;49.80;40.75;;;;;;;2.86;63.03;101093.44;4950534;28;97340;-76
2021/01/18 04:43:17;;;;;;;51.45;43.47;;;;;;;2.78;63.78;101104.66;4951048;28;98459;-76
2021/01/18 04:45:43;;;;;;;53.33;46.35;;;;;;;2.67;64.13;101102.13;4951477;28;96567;-75
2021/01/18 04:48:11;;;;;;;50.33;42.38;;;;;;;2.81;63.92;101096.91;4953090;28;96772;-76
2021/01/18 04:50:37;;;;;;;50.00;41.85;;;;;;;2.84;63.62;101091.75;4949441;28;98615;-76
2021/01/18 04:53:14;;;;;;;48.85;43.22;;;;;;;2.67;64.00;101096.13;4913467;28;98453;-76
2021/01/18 04:55:44;;;;;;;55.50;44.92;;;;;;;2.81;63.91;101105.47;4931723;28;96619;-76
2021/01/18 04:58:14;;;;;;;54.28;43.58;;;;;;;2.84;63.48;101100.31;4932350;28;96636;-75
2021/01/18 05:00:47;;;;;;;49.28;41.88;;;;;;;2.94;62.64;101108.88;4932177;28;98664;-75
2021/01/18 05:03:16;;;;;;;55.53;44.00;;;;;;;2.71;63.83;101108.94;4932473;28;98499;-75
2021/01/18 05:05:51;;;;;;;52.92;45.25;;;;;;;2.52;64.35;101123.63;4933018;28;96491;-76
2021/01/18 05:08:39;;;;;;;55.15;43.92;;;;;;;2.53;64.61;101125.31;4934241;28;96377;-75
2021/01/18 05:11:05;;;;;;;47.22;42.20;;;;;;;2.58;64.98;101130.47;4933017;28;98874;-75
2021/01/18 05:13:31;;;;;;;49.65;43.42;;;;;;;2.65;64.20;101137.28;4933729;28;98521;-75
2021/01/18 05:15:59;;;;;;;52.90;43.28;;;;;;;2.71;64.19;101144.13;4946867;28;96557;-75
2021/01/18 05:18:32;;;;;;;58.95;50.10;;;;;;;2.62;64.07;101145.03;4951097;28;96561;-75
2021/01/18 05:21:03;;;;;;;48.60;43.30;;;;;;;2.55;64.48;101149.31;4950411;28;98628;-76
2021/01/18 05:23:29;;;;;;;55.45;46.58;;;;;;;2.56;64.25;101151.06;4946582;28;98565;-75
2021/01/18 05:26:21;;;;;;;54.95;45.60;;;;;;;2.61;64.20;101159.63;4950057;28;96554;-74
2021/01/18 05:28:48;;;;;;;52.55;45.33;;;;;;;2.72;63.36;101162.19;4913911;28;96830;-74
2021/01/18 05:31:26;;;;;;;53.17;46.20;;;;;;;2.24;65.51;101161.44;4938854;28;98579;-74
2021/01/18 05:33:56;;;;;;;52.75;44.72;;;;;;;2.40;64.82;101163.94;4951047;28;98480;-74
2021/01/18 05:36:39;;;;;;;56.78;46.78;;;;;;;2.35;65.05;101167.41;4951863;28;97883;-74
2021/01/18 05:39:14;;;;;;;54.30;45.55;;;;;;;2.52;64.25;101169.09;4952610;28;96697;-73
2021/01/18 05:41:42;;;;;;;50.50;43.50;;;;;;;2.51;64.10;101173.38;4951949;28;98575;-73
2021/01/18 05:44:08;;;;;;;53.00;44.03;;;;;;;2.61;63.77;101180.22;4951927;28;98623;-74
2021/01/18 05:46:36;;;;;;;49.97;44.55;;;;;;;2.63;63.71;101186.22;4950769;28;100129;-74
2021/01/18 05:49:11;;;;;;;55.40;46.70;;;;;;;2.61;63.94;101193.09;4950699;28;97117;-73
2021/01/18 05:51:37;;;;;;;;;;;;;;;2.50;64.32;101178.50;4947923;28;99930;-73
2021/01/18 05:54:04;;;;;;;51.08;44.67;;;;;;;2.58;63.77;101184.53;4951979;28;98880;-76
2021/01/18 05:56:41;;;;;;;56.20;47.42;;;;;;;2.41;64.54;101187.13;4934428;28;96648;-76
2021/01/18 05:59:16;;;;;;;53.67;45.33;;;;;;;2.40;64.48;101187.09;4942579;28;96601;-75
2021/01/18 06:01:43;;;;;;;51.83;46.15;;;;;;;2.19;65.18;101194.03;4946028;28;98438;-73
2021/01/18 06:04:11;;;;;;;54.53;48.30;;;;;;;2.39;64.46;101193.13;4947016;28;98476;-74
2021/01/18 06:06:37;;;;;;;58.05;46.47;;;;;;;2.48;64.19;101193.13;4945529;28;96594;-72
2021/01/18 06:09:04;;;;;;;55.28;46.55;;;;;;;2.51;63.97;101198.28;4951717;28;96647;-73
2021/01/18 06:11:31;;;;;;;55.97;46.78;;;;;;;2.47;64.46;101189.69;4949735;28;98621;-72
2021/01/18 06:14:01;;;;;;;51.08;45.60;;;;;;;2.58;63.93;101195.66;4951382;28;98815;-72
2021/01/18 06:16:29;;;;;;;54.58;47.55;;;;;;;2.54;63.67;101193.09;4944471;28;96823;-72
2021/01/18 06:19:22;;;;;;;53.08;47.03;;;;;;;2.36;64.49;101202.56;4942352;28;96703;-71
2021/01/18 06:21:49;;;;;;;51.92;45.13;;;;;;;2.56;63.46;101196.53;4946361;28;98641;-73
2021/01/18 06:24:16;;;;;;;54.45;47.50;;;;;;;2.69;63.16;101199.94;4928965;28;98478;-73
2021/01/18 06:26:43;;;;;;;56.38;47.90;;;;;;;2.67;63.40;101204.25;4950008;28;96580;-71
2021/01/18 06:29:10;;;;;;;58.38;48.42;;;;;;;2.57;63.46;101193.97;4946124;28;96739;-70
2021/01/18 06:31:46;;;;;;;56.03;47.88;;;;;;;2.46;64.08;101195.69;4943602;28;98601;-75
2021/01/18 06:34:26;;;;;;;74.95;48.22;;;;;;;2.57;63.52;101193.97;4944248;28;98641;-67
2021/01/18 06:36:56;;;;;;;54.15;46.90;;;;;;;2.46;63.94;101198.28;4947522;28;96634;-69
2021/01/18 06:39:27;;;;;;;60.50;46.70;;;;;;;2.65;63.14;101193.94;4943412;28;96665;-70
2021/01/18 06:41:58;;;;;;;52.83;46.80;;;;;;;2.60;63.61;101193.94;4946687;28;98613;-68
2021/01/18 06:44:40;;;;;;;55.70;46.95;;;;;;;2.43;63.76;101198.25;4946859;28;98498;-68
2021/01/18 06:47:29;;;;;;;60.03;49.28;;;;;;;2.49;63.86;101205.97;4949496;28;97196;-68
2021/01/18 06:50:04;;;;;;;54.60;45.40;;;;;;;2.56;63.66;101209.41;4926407;28;97015;-69
2021/01/18 06:52:31;;;;;;;58.17;47.33;;;;;;;2.44;64.00;101212.00;4932457;28;98502;-69
2021/01/18 06:55:02;;;;;;;61.10;48.50;;;;;;;2.48;64.02;101204.25;4927893;28;98625;-69
2021/01/18 06:57:45;;;;;;;58.03;48.05;;;;;;;2.63;63.74;101206.81;4941917;28;96689;-72
2021/01/18 07:00:15;;;;;;;54.28;45.88;;;;;;;2.61;63.68;101213.69;4929140;28;96758;-73
2021/01/18 07:03:18;;;;;;;59.10;48.03;;;;;;;2.20;65.78;101221.44;4942697;28;98728;-72
2021/01/18 07:05:47;;;;;;;59.13;47.15;;;;;;;2.26;65.01;101224.00;4944041;28;98505;-72
2021/01/18 07:08:18;;;;;;;55.38;47.80;;;;;;;2.36;64.64;101228.31;4941474;28;96574;-75
2021/01/18 07:10:48;;;;;;;59.10;51.45;;;;;;;2.28;65.58;101227.44;4944102;28;96919;-70
2021/01/18 07:13:19;;;;;;;53.75;47.42;;;;;;;2.26;65.78;101220.59;4948063;28;98685;-71
2021/01/18 07:15:48;;;;;;;57.90;49.50;;;;;;;2.42;65.28;101219.72;4948402;28;98655;-72
2021/01/18 07:18:15;;;;;;;56.10;48.80;;;;;;;2.67;64.37;101219.69;4949592;28;96698;-71
2021/01/18 07:20:46;;;;;;;55.08;48.80;;;;;;;2.55;65.20;101220.53;4946991;28;97614;-70
2021/01/18 07:23:13;;;;;;;60.22;49.10;;;;;;;2.67;65.45;101220.53;4945577;28;98658;-68
2021/01/18 07:25:44;;;;;;;57.10;47.97;;;;;;;2.61;65.53;101220.56;4948137;28;99710;-70
2021/01/18 07:28:28;;;;;;;55.00;48.03;;;;;;;2.67;65.81;101224.84;4947535;28;96606;-72
2021/01/18 07:30:55;;;;;;;53.20;47.00;;;;;;;2.78;65.16;101234.25;4930663;28;96992;-71
2021/01/18 07:33:22;;;;;;;59.67;48.13;;;;;;;2.87;65.50;101230.78;4916434;28;98848;-71
2021/01/18 07:35:48;;;;;;;51.72;45.70;;;;;;;3.19;64.23;101232.38;4927025;28;98451;-68
2021/01/18 07:38:19;;;;;;;67.20;48.38;;;;;;;3.17;64.63;101241.84;4931014;28;96515;-68
2021/01/18 07:41:04;;;;;;;61.38;50.83;;;;;;;3.33;64.80;101233.19;4949043;28;96563;-67
2021/01/18 07:43:36;;;;;;;;;;;;;;;3.47;64.33;101228.84;4947477;28;98638;-67
2021/01/18 07:46:24;;;;;;;60.88;48.60;;;;;;;3.74;63.49;101234.72;4943570;28;98438;-66
2021/01/18 07:48:52;;;;;;;56.10;46.33;;;;;;;3.96;63.47;101235.41;4943916;28;96632;-67
2021/01/18 07:51:22;;;;;;;54.15;48.20;;;;;;;4.19;62.93;101239.53;4940622;28;97005;-68
2021/01/18 07:53:48;;;;;;;60.42;48.63;;;;;;;4.29;62.30;101244.63;4945522;28;98479;-68
2021/01/18 07:56:27;;;;;;;60.97;51.63;;;;;;;4.43;61.95;101250.53;4940568;28;98702;-68
2021/01/18 07:58:57;;;;;;;54.75;47.25;;;;;;;4.49;61.13;101265.97;4946678;28;96649;-67
2021/01/18 08:01:39;;;;;;;54.65;47.28;;;;;;;4.49;61.39;101268.56;4944480;28;96762;-68
2021/01/18 08:04:21;;;;;;;53.65;46.25;;;;;;;4.87;60.40;101268.19;4942601;28;98569;-67
2021/01/18 08:07:07;;;;;;;53.63;47.50;;;;;;;5.08;60.09;101267.09;4947225;28;98489;-67
2021/01/18 08:09:34;;;;;;;56.90;48.60;;;;;;;5.24;59.55;101265.19;4948871;28;96590;-67
2021/01/18 08:12:31;;;;;;;59.17;45.60;;;;;;;5.33;59.45;101274.59;4949295;28;96677;-68
2021/01/18 08:15:08;;;;;;;58.72;48.38;;;;;;;5.62;58.86;101269.88;4942443;28;98573;-68
2021/01/18 08:17:34;;;;;;;55.33;46.67;;;;;;;6.01;56.95;101270.22;4950139;28;98641;-68
2021/01/18 08:20:15;;;;;;;56.38;48.00;;;;;;;6.34;56.84;101275.75;4949515;28;97022;-69
2021/01/18 08:22:41;;;;;;;56.17;48.60;;;;;;;6.46;56.35;101280.75;4940647;28;96793;-68
2021/01/18 08:25:08;;;;;;;57.30;45.30;;;;;;;6.56;56.31;101279.72;4945402;28;98563;-68
2021/01/18 08:27:35;;;;;;;80.35;48.15;;;;;;;6.64;55.55;101277.00;4943772;28;98578;-67
2021/01/18 08:30:14;;;;;;;55.13;49.22;;;;;;;6.77;55.42;101283.69;4946732;28;96639;-66
2021/01/18 08:32:42;;;;;;;55.45;48.28;;;;;;;7.00;54.99;101283.25;4949354;28;97063;-64
2021/01/18 08:35:18;;;;;;;56.33;48.22;;;;;;;7.09;54.68;101291.72;4932773;28;98526;-66
2021/01/18 08:37:58;;;;;;;52.13;44.97;;;;;;;7.03;54.62;101297.03;4944178;28;98836;-67
2021/01/18 08:40:38;;;;;;;55.13;46.88;;;;;;;7.11;54.19;101289.09;4942493;28;96850;-66
2021/01/18 08:43:04;;;;;;;51.88;45.58;;;;;;;7.08;54.49;101290.03;4922083;28;97257;-67
2021/01/18 08:45:37;;;;;;;61.25;48.90;;;;;;;7.03;54.06;101301.34;4941520;28;98639;-65
2021/01/18 08:48:08;;;;;;;61.17;47.72;;;;;;;6.93;54.30;101305.00;4942844;28;98572;-67
2021/01/18 08:50:46;;;;;;;52.17;45.70;;;;;;;6.78;54.83;101312.16;4941991;28;98025;-66
2021/01/18 08:53:30;;;;;;;62.17;50.25;;;;;;;6.32;56.63;101316.38;4939324;28;97024;-67
2021/01/18 08:55:59;;;;;;;58.20;49.25;;;;;;;6.02;57.61;101313.38;4941776;28;98668;-65
2021/01/18 08:58:44;;;;;;;61.63;51.33;;;;;;;6.00;58.03;101312.53;4923397;28;98725;-67
2021/01/18 09:01:10;;;;;;;;;;;;;;;5.85;58.66;101323.06;4950843;28;97499;-66
2021/01/18 09:03:37;;;;;;;61.95;48.47;;;;;;;5.75;58.62;101324.91;4932899;28;96771;-66
2021/01/18 09:06:04;;;;;;;60.08;50.72;;;;;;;5.65;58.51;101329.34;4933583;28;97643;-66
2021/01/18 09:08:30;;;;;;;58.75;49.90;;;;;;;5.60;59.00;101322.53;4932126;28;98593;-66
2021/01/18 09:11:00;;;;;;;61.03;52.22;;;;;;;5.47;59.45;101339.91;4936733;28;97339;-66
2021/01/18 09:13:28;;;;;;;57.20;48.58;;;;;;;5.69;58.70;101341.34;4940727;28;96823;-66
2021/01/18 09:15:56;;;;;;;59.08;47.40;;;;;;;5.62;58.43;101334.56;4950524;28;98619;-67
2021/01/18 09:18:23;;;;;;;58.05;45.60;;;;;;;5.50;59.03;101345.91;4948646;28;98704;-66
2021/01/18 09:20:50;;;;;;;51.90;43.25;;;;;;;5.56;58.45;101347.56;4951426;28;96704;-65
2021/01/18 09:23:17;;;;;;;48.60;40.45;;;;;;;5.65;57.83;101356.97;4934775;28;96964;-66
2021/01/18 09:26:07;;;;;;;47.83;42.53;;;;;;;5.48;58.77;101345.06;4942064;28;98509;-66
2021/01/18 09:28:34;;;;;;;48.40;42.70;;;;;;;5.62;58.51;101355.25;4930669;28;98660;-65
2021/01/18 09:31:13;;;;;;;49.95;41.00;;;;;;;5.51;59.07;101346.75;4933792;28;97093;-65
2021/01/18 09:33:40;;;;;;;49.42;42.53;;;;;;;5.56;59.12;101355.31;4950245;28;97043;-63
2021/01/18 09:36:11;;;;;;;51.85;43.15;;;;;;;5.43;58.59;101364.09;4947760;28;98859;-66
2021/01/18 09:38:38;;;;;;;47.92;41.00;;;;;;;5.51;58.59;101363.13;4930469;28;98467;-66
2021/01/18 09:41:05;;;;;;;49.08;43.42;;;;;;;5.64;59.03;101366.41;4930713;28;96578;-67
2021/01/18 09:43:32;;;;;;;54.30;44.83;;;;;;;5.68;58.59;101370.69;4949546;28;98920;-67
2021/01/18 09:45:59;;;;;;;52.47;44.05;;;;;;;5.72;58.25;101376.69;4949948;28;98511;-71
2021/01/18 09:48:26;;;;;;;53.42;44.33;;;;;;;5.78;58.06;101379.22;4950715;28;99210;-64
2021/01/18 09:50:59;;;;;;;51.55;46.00;;;;;;;5.70;58.77;101378.44;4950052;28;96699;-64
2021/01/18 09:53:27;;;;;;;50.65;44.13;;;;;;;5.78;58.58;101380.06;4949264;28;96619;-68
2021/01/18 09:55:54;;;;;;;54.53;46.78;;;;;;;5.75;58.74;101377.53;4930146;28;98792;-68
2021/01/18 09:58:29;;;;;;;50.05;44.10;;;;;;;5.87;58.57;101380.84;4943767;28;98632;-64
2021/01/18 10:00:56;;;;;;;52.22;45.50;;;;;;;5.89;58.20;101379.06;4960883;28;96880;-66
2021/01/18 10:03:31;;;;;;;51.55;43.80;;;;;;;5.85;58.25;101370.47;4916528;28;97592;-67
2021/01/18 10:06:07;;;;;;;51.22;45.63;;;;;;;5.96;58.39;101367.78;4950642;28;98395;-68
2021/01/18 10:08:35;;;;;;;58.00;48.38;;;;;;;5.99;58.61;101363.44;4912105;28;98482;-69
2021/01/18 10:11:02;;;;;;;58.08;48.88;;;;;;;5.78;59.72;101366.28;4922929;28;96668;-65
2021/01/18 10:13:28;;;;;;;62.20;49.15;;;;;;;5.86;59.99;101368.75;4947795;28;96881;-66
2021/01/18 10:15:55;;;;;;;63.90;52.67;;;;;;;5.86;59.69;101364.47;4950137;28;98625;-63
2021/01/18 10:18:34;;;;;;;58.65;52.00;;;;;;;5.61;60.44;101356.13;4930949;28;98501;-64
2021/01/18 10:21:01;;;;;;;56.80;50.70;;;;;;;5.87;60.24;101347.19;4948080;28;97286;-66
2021/01/18 10:23:35;;;;;;;57.97;51.88;;;;;;;6.04;59.61;101343.53;4946886;28;97163;-65
2021/01/18 10:26:19;;;;;;;67.00;56.70;;;;;;;6.06;59.56;101327.09;4938993;28;98582;-64
2021/01/18 10:28:50;;;;;;;;;;;;;;;6.04;59.38;101332.31;4944030;28;98761;-66
2021/01/18 10:31:17;;;;;;;60.78;53.45;;;;;;;5.91;60.29;101331.66;4965966;28;96969;-65
2021/01/18 10:33:44;;;;;;;57.17;50.97;;;;;;;5.82;60.96;101330.88;4951688;28;96692;-65
2021/01/18 10:36:10;;;;;;;63.40;56.58;;;;;;;6.06;60.57;101329.69;4944170;28;99018;-67
2021/01/18 10:38:37;;;;;;;67.18;51.78;;;;;;;6.00;59.75;101335.81;4943123;28;98606;-67
2021/01/18 10:41:05;;;;;;;71.05;54.42;;;;;;;6.07;60.31;101337.44;4948337;28;96601;-70
2021/01/18 10:43:43;;;;;;;60.72;51.92;;;;;;;6.09;60.27;101340.88;4947352;28;96978;-65
2021/01/18 10:46:16;;;;;;;55.72;49.17;;;;;;;6.16;60.22;101339.91;4934197;28;98761;-67
2021/01/18 10:48:43;;;;;;;60.35;50.97;;;;;;;6.13;60.32;101337.38;4948788;28;98081;-65
2021/01/18 10:51:09;;;;;;;54.55;47.95;;;;;;;6.13;60.14;101327.03;4914853;28;96619;-65
2021/01/18 10:53:36;;;;;;;56.70;47.75;;;;;;;5.97;60.13;101321.19;4946398;28;96795;-63
2021/01/18 10:56:21;;;;;;;;;;;;;;;5.84;61.31;101324.78;4932778;28;98702;-64
2021/01/18 10:58:57;;;;;;;52.58;46.70;;;;;;;5.89;60.62;101333.34;4951012;28;98465;-64
2021/01/18 11:01:23;;;;;;;55.92;48.40;;;;;;;5.95;60.38;101327.25;4945919;28;96896;-67
2021/01/18 11:03:49;;;;;;;54.53;48.17;;;;;;;6.00;61.04;101325.47;4929424;28;96832;-67
2021/01/18 11:06:18;;;;;;;58.55;50.63;;;;;;;6.17;60.32;101323.47;4931473;28;97561;-66
2021/01/18 11:08:44;;;;;;;58.58;49.70;;;;;;;6.20;60.33;101317.41;4949200;28;98678;-66
2021/01/18 11:11:21;;;;;;;58.40;48.85;;;;;;;6.18;60.05;101319.16;4947845;28;97066;-67
2021/01/18 11:13:59;;;;;;;66.93;50.28;;;;;;;6.14;59.79;101318.38;4949050;28;96728;-67
2021/01/18 11:16:25;;;;;;;58.80;49.20;;;;;;;6.01;60.23;101317.66;4928819;28;98681;-67
2021/01/18 11:18:58;;;;;;;61.03;53.42;;;;;;;5.85;60.41;101312.69;4931363;28;98469;-67
2021/01/18 11:21:26;;;;;;;61.25;51.28;;;;;;;6.02;60.30;101321.16;4938003;28;97679;-68
2021/01/18 11:23:53;;;;;;;64.85;49.42;;;;;;;6.04;59.95;101314.19;4923930;28;97052;-67
2021/01/18 11:26:20;;;;;;;59.97;49.88;;;;;;;5.99;59.80;101314.25;4946204;28;98766;-68
2021/01/18 11:28:46;;;;;;;57.00;50.92;;;;;;;6.17;59.48;101305.34;4954132;28;98494;-67
2021/01/18 11:31:15;;;;;;;53.85;48.03;;;;;;;6.24;59.28;101301.81;4957481;28;96994;-67
2021/01/18 11:33:43;;;;;;;56.92;47.85;;;;;;;6.12;59.65;101299.41;4920775;28;97037;-65
2021/01/18 11:36:11;;;;;;;59.78;49.95;;;;;;;6.06;59.95;101302.06;4931356;28;98882;-67